createdAt,value
2023-02-23T00:02:07.998Z,100.00
2023-02-23T00:04:35.568Z,100.00
2023-02-23T00:07:05.422Z,100.00
2023-02-23T00:09:45.608Z,100.00
2023-02-23T00:12:23.945Z,100.00
2023-02-23T00:15:00.252Z,100.00
2023-02-23T00:17:31.527Z,100.00
2023-02-23T00:20:06.037Z,100.00
2023-02-23T00:22:37.991Z,100.00
2023-02-23T00:25:09.024Z,100.00
2023-02-23T00:27:44.476Z,100.00
2023-02-23T00:30:15.659Z,100.00
2023-02-23T00:32:42.112Z,100.00
2023-02-23T00:35:19.050Z,100.00
2023-02-23T00:37:49.622Z,100.00
2023-02-23T00:40:24.630Z,100.00
2023-02-23T00:42:52.461Z,100.00
2023-02-23T00:45:20.279Z,100.00
2023-02-23T00:47:48.737Z,100.00
2023-02-23T00:50:23.198Z,100.00
2023-02-23T00:52:52.278Z,100.00
2023-02-23T00:55:18.988Z,100.00
2023-02-23T00:57:45.878Z,100.00
2023-02-23T01:00:25.633Z,100.00
2023-02-23T01:02:52.215Z,100.00
2023-02-23T01:05:18.688Z,100.00
2023-02-23T01:08:06.840Z,100.00
2023-02-23T01:10:33.232Z,100.00
2023-02-23T01:12:59.985Z,100.00
2023-02-23T01:15:39.852Z,100.00
2023-02-23T01:18:14.641Z,100.00
2023-02-23T01:20:44.237Z,100.00
2023-02-23T01:23:14.829Z,100.00
2023-02-23T01:25:43.128Z,100.00
2023-02-23T01:28:18.474Z,100.00
2023-02-23T01:30:45.048Z,100.00
2023-02-23T01:33:14.034Z,100.00
2023-02-23T01:35:40.644Z,100.00
2023-02-23T01:38:07.503Z,100.00
2023-02-23T01:40:39.373Z,100.00
2023-02-23T01:43:15.361Z,100.00
2023-02-23T01:45:47.306Z,100.00
2023-02-23T01:48:18.058Z,100.00
2023-02-23T01:50:56.198Z,100.00
2023-02-23T01:53:25.367Z,100.00
2023-02-23T01:55:56.634Z,100.00
2023-02-23T01:58:29.133Z,100.00
2023-02-23T02:00:57.772Z,100.00
2023-02-23T02:03:34.821Z,100.00
2023-02-23T02:06:03.130Z,100.00
2023-02-23T02:08:32.277Z,100.00
2023-02-23T02:11:08.491Z,100.00
2023-02-23T02:13:38.227Z,100.00
2023-02-23T02:16:28.254Z,100.00
2023-02-23T02:19:12.047Z,100.00
2023-02-23T02:22:38.977Z,100.00
2023-02-23T02:25:12.005Z,100.00
2023-02-23T02:28:00.031Z,100.00
2023-02-23T02:30:35.514Z,100.00
2023-02-23T02:33:09.429Z,100.00
2023-02-23T02:35:53.805Z,100.00
2023-02-23T02:38:53.385Z,100.00
2023-02-23T02:41:37.122Z,100.00
2023-02-23T02:44:15.265Z,100.00
2023-02-23T02:46:57.479Z,100.00
2023-02-23T02:49:36.758Z,100.00
2023-02-23T02:52:06.943Z,100.00
2023-02-23T02:54:41.949Z,100.00
2023-02-23T02:57:13.852Z,100.00
2023-02-23T03:00:04.019Z,100.00
2023-02-23T03:02:51.402Z,100.00
2023-02-23T03:05:38.786Z,100.00
2023-02-23T03:08:31.913Z,100.00
2023-02-23T03:11:29.210Z,100.00
2023-02-23T03:14:40.753Z,100.00
2023-02-23T03:17:43.397Z,100.00
2023-02-23T03:20:50.660Z,100.00
2023-02-23T03:24:11.320Z,100.00
2023-02-23T03:27:05.009Z,100.00
2023-02-23T03:30:05.830Z,100.00
2023-02-23T03:33:06.062Z,100.00
2023-02-23T03:36:14.539Z,100.00
2023-02-23T03:39:02.569Z,100.00
2023-02-23T03:41:49.934Z,100.00
2023-02-23T03:44:51.833Z,100.00
2023-02-23T03:47:42.867Z,100.00
2023-02-23T03:50:41.531Z,100.00
2023-02-23T03:53:29.234Z,100.00
2023-02-23T03:56:19.231Z,100.00
2023-02-23T03:59:08.965Z,100.00
2023-02-23T04:02:07.646Z,100.00
2023-02-23T04:04:54.754Z,100.00
2023-02-23T04:07:40.122Z,100.00
2023-02-23T04:10:27.998Z,100.00
2023-02-23T04:13:15.294Z,100.00
2023-02-23T04:16:01.099Z,100.00
2023-02-23T04:18:30.914Z,100.00
2023-02-23T04:20:59.006Z,100.00
2023-02-23T04:23:26.627Z,100.00
2023-02-23T04:25:53.702Z,100.00
2023-02-23T04:28:21.134Z,100.00
2023-02-23T04:30:53.058Z,100.00
2023-02-23T04:33:22.060Z,100.00
2023-02-23T04:35:48.752Z,100.00
2023-02-23T04:38:15.221Z,100.00
2023-02-23T04:40:41.666Z,100.00
2023-02-23T04:43:09.382Z,100.00
2023-02-23T04:45:35.750Z,100.00
2023-02-23T04:48:02.295Z,100.00
2023-02-23T04:50:29.324Z,100.00
2023-02-23T04:52:56.809Z,100.00
2023-02-23T04:55:24.884Z,100.00
2023-02-23T04:57:52.802Z,100.00
2023-02-23T05:00:19.598Z,100.00
2023-02-23T05:02:46.093Z,100.00
2023-02-23T05:05:13.026Z,100.00
2023-02-23T05:07:39.506Z,100.00
2023-02-23T05:10:06.898Z,100.00
2023-02-23T05:12:33.612Z,100.00
2023-02-23T05:15:03.122Z,100.00
2023-02-23T05:17:31.645Z,100.00
2023-02-23T05:19:58.037Z,100.00
2023-02-23T05:22:24.469Z,100.00
2023-02-23T05:24:50.831Z,100.00
2023-02-23T05:27:17.932Z,100.00
2023-02-23T05:29:44.976Z,100.00
2023-02-23T05:32:11.559Z,100.00
2023-02-23T05:34:39.169Z,100.00
2023-02-23T05:37:06.125Z,100.00
2023-02-23T05:39:35.665Z,100.00
2023-02-23T05:42:02.039Z,100.00
2023-02-23T05:44:31.305Z,100.00
2023-02-23T05:46:57.843Z,100.00
2023-02-23T05:49:24.449Z,100.00
2023-02-23T05:51:51.541Z,100.00
2023-02-23T05:54:22.793Z,100.00
2023-02-23T05:56:49.310Z,100.00
2023-02-23T05:59:17.369Z,100.00
2023-02-23T06:01:43.780Z,100.00
2023-02-23T06:04:10.215Z,100.00
2023-02-23T06:06:36.705Z,100.00
2023-02-23T06:09:03.629Z,100.00
2023-02-23T06:11:30.645Z,100.00
2023-02-23T06:14:00.439Z,100.00
2023-02-23T06:16:27.961Z,100.00
2023-02-23T06:18:57.012Z,100.00
2023-02-23T06:21:25.121Z,100.00
2023-02-23T06:23:52.407Z,100.00
2023-02-23T06:26:18.883Z,100.00
2023-02-23T06:28:45.329Z,100.00
2023-02-23T06:31:14.856Z,100.00
2023-02-23T06:33:41.316Z,100.00
2023-02-23T06:36:08.020Z,100.00
2023-02-23T06:38:34.495Z,100.00
2023-02-23T06:41:06.345Z,100.00
2023-02-23T06:43:35.006Z,100.00
2023-02-23T06:46:01.582Z,100.00
2023-02-23T06:48:30.449Z,100.00
2023-02-23T06:51:01.108Z,100.00
2023-02-23T06:53:27.718Z,100.00
2023-02-23T06:55:54.302Z,100.00
2023-02-23T06:58:20.951Z,100.00
2023-02-23T07:00:47.411Z,100.00
2023-02-23T07:03:13.865Z,100.00
2023-02-23T07:05:44.973Z,100.00
2023-02-23T07:08:11.450Z,100.00
2023-02-23T07:10:37.868Z,100.00
2023-02-23T07:13:04.332Z,100.00
2023-02-23T07:15:30.862Z,100.00
2023-02-23T07:18:00.480Z,100.00
2023-02-23T07:20:29.410Z,100.00
2023-02-23T07:22:56.013Z,100.00
2023-02-23T07:25:22.625Z,100.00
2023-02-23T07:27:49.178Z,100.00
2023-02-23T07:30:15.804Z,100.00
2023-02-23T07:32:42.187Z,100.00
2023-02-23T07:35:09.170Z,100.00
2023-02-23T07:37:35.556Z,100.00
2023-02-23T07:40:02.827Z,100.00
2023-02-23T07:42:29.664Z,100.00
2023-02-23T07:44:56.112Z,100.00
2023-02-23T07:47:30.206Z,100.00
2023-02-23T07:50:03.443Z,100.00
2023-02-23T07:52:29.810Z,100.00
2023-02-23T07:54:58.421Z,100.00
2023-02-23T07:57:25.195Z,100.00
2023-02-23T07:59:51.905Z,100.00
2023-02-23T08:02:18.651Z,100.00
2023-02-23T08:04:45.211Z,100.00
2023-02-23T08:07:16.223Z,100.00
2023-02-23T08:09:42.673Z,100.00
2023-02-23T08:12:10.434Z,100.00
2023-02-23T08:14:36.985Z,100.00
2023-02-23T08:17:03.555Z,100.00
2023-02-23T08:19:30.709Z,100.00
2023-02-23T08:21:57.614Z,100.00
2023-02-23T08:24:27.041Z,100.00
2023-02-23T08:26:59.243Z,100.00
2023-02-23T08:29:25.558Z,100.00
2023-02-23T08:31:52.312Z,100.00
2023-02-23T08:34:20.454Z,100.00
2023-02-23T08:36:46.865Z,100.00
2023-02-23T08:39:14.535Z,100.00
2023-02-23T08:41:41.550Z,100.00
2023-02-23T08:44:08.203Z,100.00
2023-02-23T08:46:34.797Z,100.00
2023-02-23T08:49:01.380Z,100.00
2023-02-23T08:51:27.735Z,100.00
2023-02-23T08:53:57.131Z,100.00
2023-02-23T08:56:25.268Z,100.00
2023-02-23T08:58:52.388Z,100.00
2023-02-23T09:01:25.438Z,100.00
2023-02-23T09:03:54.194Z,100.00
2023-02-23T09:06:23.083Z,100.00
2023-02-23T09:08:49.663Z,100.00
2023-02-23T09:11:16.027Z,100.00
2023-02-23T09:13:42.829Z,100.00
2023-02-23T09:16:09.572Z,100.00
2023-02-23T09:18:36.468Z,100.00
2023-02-23T09:21:06.406Z,100.00
2023-02-23T09:23:36.766Z,100.00
2023-02-23T09:26:06.748Z,100.00
2023-02-23T09:28:34.578Z,99.01
2023-02-23T09:31:17.590Z,97.90
2023-02-23T09:33:44.760Z,95.70
2023-02-23T09:36:17.360Z,96.04
2023-02-23T09:38:49.461Z,92.89
2023-02-23T09:41:34.620Z,94.77
2023-02-23T09:44:23.802Z,94.19
2023-02-23T09:47:35.335Z,90.76
2023-02-23T09:50:13.865Z,90.25
2023-02-23T09:52:47.448Z,89.68
2023-02-23T09:55:16.093Z,88.11
2023-02-23T09:57:47.948Z,88.91
2023-02-23T10:00:27.740Z,87.65
2023-02-23T10:03:22.277Z,86.32
2023-02-23T10:06:01.890Z,86.48
2023-02-23T10:08:40.005Z,86.08
2023-02-23T10:11:25.201Z,83.66
2023-02-23T10:13:56.241Z,84.61
2023-02-23T10:16:46.328Z,81.56
2023-02-23T10:19:37.484Z,81.38
2023-02-23T10:22:07.524Z,78.74
2023-02-23T10:24:38.573Z,76.85
2023-02-23T10:27:23.250Z,79.14
2023-02-23T10:29:52.738Z,78.92
2023-02-23T10:32:48.236Z,79.45
2023-02-23T10:35:18.171Z,78.64
2023-02-23T10:37:48.445Z,77.99
2023-02-23T10:40:23.044Z,78.57
2023-02-23T10:42:50.679Z,76.40
2023-02-23T10:45:24.531Z,77.56
2023-02-23T10:48:01.971Z,77.38
2023-02-23T10:50:31.209Z,77.45
2023-02-23T10:53:07.013Z,79.05
2023-02-23T10:55:39.427Z,78.31
2023-02-23T10:58:17.111Z,77.99
2023-02-23T11:00:53.067Z,78.36
2023-02-23T11:03:27.678Z,78.07
2023-02-23T11:05:56.941Z,79.05
2023-02-23T11:08:41.215Z,79.14
2023-02-23T11:11:17.115Z,79.52
2023-02-23T11:13:55.912Z,79.41
2023-02-23T11:16:38.829Z,79.25
2023-02-23T11:19:22.879Z,79.73
2023-02-23T11:21:52.551Z,78.22
2023-02-23T11:24:24.961Z,77.92
2023-02-23T11:26:58.080Z,75.40
2023-02-23T11:29:35.271Z,73.23
2023-02-23T11:32:17.079Z,72.23
2023-02-23T11:34:44.331Z,72.38
2023-02-23T11:37:15.324Z,73.16
2023-02-23T11:39:55.105Z,73.43
2023-02-23T11:42:35.160Z,72.83
2023-02-23T11:45:03.407Z,73.80
2023-02-23T11:47:31.907Z,73.75
2023-02-23T11:49:59.795Z,72.73
2023-02-23T11:52:28.451Z,72.75
2023-02-23T11:55:00.405Z,72.89
2023-02-23T11:57:45.060Z,73.45
2023-02-23T12:00:21.424Z,71.19
2023-02-23T12:02:55.495Z,70.38
2023-02-23T12:05:29.154Z,70.33
2023-02-23T12:08:31.121Z,72.59
2023-02-23T12:11:02.326Z,72.97
2023-02-23T12:13:41.315Z,72.59
2023-02-23T12:16:13.144Z,70.20
2023-02-23T12:19:00.495Z,72.23
2023-02-23T12:21:29.616Z,70.73
2023-02-23T12:24:08.196Z,66.35
2023-02-23T12:26:51.179Z,68.95
2023-02-23T12:29:31.123Z,66.78
2023-02-23T12:32:13.307Z,66.12
2023-02-23T12:34:48.184Z,66.63
2023-02-23T12:37:28.351Z,65.47
2023-02-23T12:40:04.181Z,65.63
2023-02-23T12:42:40.783Z,66.81
2023-02-23T12:45:18.440Z,65.15
2023-02-23T12:47:53.639Z,65.69
2023-02-23T12:50:40.445Z,66.27
2023-02-23T12:53:20.689Z,65.62
2023-02-23T12:56:06.421Z,65.98
2023-02-23T12:58:58.711Z,65.92
2023-02-23T13:01:47.047Z,66.74
2023-02-23T13:04:55.069Z,65.94
2023-02-23T13:07:37.579Z,66.15
2023-02-23T13:10:41.209Z,68.50
2023-02-23T13:13:33.708Z,69.75
2023-02-23T13:16:22.603Z,70.31
2023-02-23T13:18:55.063Z,70.84
2023-02-23T13:21:45.122Z,70.27
2023-02-23T13:24:19.120Z,69.61
2023-02-23T13:26:50.306Z,70.55
2023-02-23T13:29:43.909Z,70.03
2023-02-23T13:32:22.600Z,71.05
2023-02-23T13:34:54.586Z,70.38
2023-02-23T13:37:26.391Z,71.14
2023-02-23T13:40:19.360Z,69.68
2023-02-23T13:43:13.757Z,70.75
2023-02-23T13:46:18.097Z,69.84
2023-02-23T13:48:56.620Z,68.34
2023-02-23T13:51:33.078Z,68.80
2023-02-23T13:54:03.592Z,68.50
2023-02-23T13:56:42.607Z,68.91
2023-02-23T13:59:17.476Z,67.90
2023-02-23T14:01:48.129Z,69.99
2023-02-23T14:04:20.707Z,68.52
2023-02-23T14:06:54.082Z,68.51
2023-02-23T14:09:30.291Z,69.03
2023-02-23T14:12:06.050Z,69.31
2023-02-23T14:14:33.175Z,69.85
2023-02-23T14:17:39.487Z,71.40
2023-02-23T14:20:17.817Z,70.83
2023-02-23T14:23:22.103Z,71.76
2023-02-23T14:26:13.371Z,71.45
2023-02-23T14:28:42.535Z,71.61
2023-02-23T14:31:20.406Z,71.63
2023-02-23T14:33:48.714Z,71.68
2023-02-23T14:36:21.338Z,71.70
2023-02-23T14:38:57.025Z,72.15
2023-02-23T14:41:35.822Z,72.92
2023-02-23T14:44:28.393Z,73.42
2023-02-23T14:47:13.062Z,72.74
2023-02-23T14:49:47.392Z,72.22
2023-02-23T14:52:45.623Z,72.38
2023-02-23T14:55:11.962Z,72.60
2023-02-23T14:57:43.671Z,72.77
2023-02-23T15:00:24.331Z,73.63
2023-02-23T15:02:54.437Z,73.66
2023-02-23T15:05:25.718Z,74.12
2023-02-23T15:07:57.910Z,72.54
2023-02-23T15:10:35.952Z,73.47
2023-02-23T15:13:23.175Z,73.33
2023-02-23T15:15:52.066Z,72.55
2023-02-23T15:19:05.828Z,73.01
2023-02-23T15:21:35.910Z,71.93
2023-02-23T15:24:11.449Z,71.85
2023-02-23T15:26:40.199Z,73.10
2023-02-23T15:29:19.108Z,73.17
2023-02-23T15:31:52.468Z,72.78
2023-02-23T15:34:23.660Z,73.04
2023-02-23T15:37:20.032Z,73.39
2023-02-23T15:39:53.320Z,73.39
2023-02-23T15:42:25.106Z,74.17
2023-02-23T15:45:13.529Z,74.41
2023-02-23T15:47:48.651Z,74.62
2023-02-23T15:50:24.783Z,74.82
2023-02-23T15:53:01.591Z,74.43
2023-02-23T15:55:35.423Z,74.46
2023-02-23T15:58:15.868Z,74.62
2023-02-23T16:00:44.829Z,74.63
2023-02-23T16:03:35.645Z,74.49
2023-02-23T16:06:07.208Z,74.11
2023-02-23T16:08:36.729Z,74.03
2023-02-23T16:11:14.026Z,74.95
2023-02-23T16:13:49.966Z,75.05
2023-02-23T16:16:25.540Z,75.41
2023-02-23T16:18:55.238Z,75.39
2023-02-23T16:21:25.279Z,75.68
2023-02-23T16:23:54.737Z,76.94
2023-02-23T16:26:40.963Z,76.42
2023-02-23T16:29:18.600Z,76.28
2023-02-23T16:31:48.459Z,77.05
2023-02-23T16:34:44.975Z,76.77
2023-02-23T16:37:20.137Z,76.87
2023-02-23T16:39:48.200Z,77.12
2023-02-23T16:42:30.878Z,77.73
2023-02-23T16:45:00.844Z,78.22
2023-02-23T16:47:44.140Z,78.79
2023-02-23T16:50:24.563Z,78.71
2023-02-23T16:52:57.038Z,78.91
2023-02-23T16:55:29.623Z,79.57
2023-02-23T16:58:02.283Z,79.62
2023-02-23T17:00:31.666Z,78.22
2023-02-23T17:03:00.645Z,79.11
2023-02-23T17:05:29.010Z,78.19
2023-02-23T17:07:59.075Z,78.95
2023-02-23T17:10:31.463Z,78.98
2023-02-23T17:13:05.037Z,78.43
2023-02-23T17:15:42.496Z,78.35
2023-02-23T17:18:12.767Z,79.65
2023-02-23T17:20:45.466Z,79.77
2023-02-23T17:23:14.541Z,80.13
2023-02-23T17:25:47.207Z,79.99
2023-02-23T17:28:17.797Z,80.21
2023-02-23T17:30:44.816Z,80.79
2023-02-23T17:33:12.242Z,80.47
2023-02-23T17:35:39.168Z,80.57
2023-02-23T17:38:11.080Z,80.02
2023-02-23T17:40:39.855Z,80.15
2023-02-23T17:43:15.732Z,79.87
2023-02-23T17:45:42.175Z,80.67
2023-02-23T17:48:11.240Z,80.38
2023-02-23T17:50:37.961Z,80.18
2023-02-23T17:53:04.506Z,80.82
2023-02-23T17:55:33.882Z,81.17
2023-02-23T17:58:00.344Z,81.39
2023-02-23T18:00:28.624Z,82.10
2023-02-23T18:02:55.157Z,82.34
2023-02-23T18:05:21.623Z,82.86
2023-02-23T18:07:50.673Z,82.73
2023-02-23T18:10:19.948Z,83.12
2023-02-23T18:12:48.973Z,82.83
2023-02-23T18:15:17.401Z,83.06
2023-02-23T18:17:44.812Z,82.69
2023-02-23T18:20:16.313Z,83.09
2023-02-23T18:22:45.713Z,83.32
2023-02-23T18:25:31.804Z,83.70
2023-02-23T18:28:03.240Z,84.00
2023-02-23T18:30:29.796Z,84.40
2023-02-23T18:32:58.127Z,85.45
2023-02-23T18:35:26.996Z,85.46
2023-02-23T18:37:53.557Z,86.10
2023-02-23T18:40:23.766Z,86.22
2023-02-23T18:42:50.431Z,86.43
2023-02-23T18:45:19.154Z,86.46
2023-02-23T18:47:45.567Z,86.46
2023-02-23T18:50:12.750Z,87.05
2023-02-23T18:52:40.663Z,86.60
2023-02-23T18:55:10.907Z,86.97
2023-02-23T18:57:43.855Z,86.77
2023-02-23T19:00:15.783Z,86.67
2023-02-23T19:02:49.350Z,86.30
2023-02-23T19:05:22.107Z,86.10
2023-02-23T19:08:01.752Z,86.11
2023-02-23T19:13:23.276Z,85.93
2023-02-23T19:15:50.189Z,86.03
2023-02-23T19:18:27.578Z,86.02
2023-02-23T19:21:04.084Z,85.72
2023-02-23T19:23:30.790Z,85.84
2023-02-23T19:26:14.140Z,85.66
2023-02-23T19:28:48.394Z,85.06
2023-02-23T19:31:23.184Z,85.63
2023-02-23T19:34:17.530Z,85.81
2023-02-23T19:36:51.201Z,85.74
2023-02-23T19:39:33.098Z,85.92
2023-02-23T19:42:00.249Z,85.88
2023-02-23T19:44:33.114Z,86.15
2023-02-23T19:47:10.077Z,85.92
2023-02-23T19:49:39.596Z,86.35
2023-02-23T19:52:14.953Z,86.60
2023-02-23T19:54:41.601Z,86.07
2023-02-23T19:57:11.361Z,86.65
2023-02-23T20:00:01.358Z,86.18
2023-02-23T20:02:42.496Z,86.59
2023-02-23T20:05:18.927Z,87.02
2023-02-23T20:07:55.791Z,87.02
2023-02-23T20:10:30.905Z,87.37
2023-02-23T20:12:57.686Z,87.85
2023-02-23T20:15:26.601Z,88.51
2023-02-23T20:17:57.530Z,88.67
2023-02-23T20:20:55.343Z,88.90
2023-02-23T20:23:26.826Z,89.16
2023-02-23T20:25:55.138Z,90.92
2023-02-23T20:28:31.201Z,91.30
2023-02-23T20:31:03.459Z,91.28
2023-02-23T20:33:31.030Z,91.85
2023-02-23T20:36:13.220Z,91.55
2023-02-23T20:38:42.482Z,92.13
2023-02-23T20:41:12.013Z,91.82
2023-02-23T20:43:44.347Z,93.29
2023-02-23T20:46:16.478Z,92.43
2023-02-23T20:51:54.608Z,93.20
2023-02-23T20:54:45.950Z,92.76
2023-02-23T20:57:21.022Z,91.39
2023-02-23T20:59:48.015Z,92.02
2023-02-23T21:02:23.042Z,91.86
2023-02-23T21:04:49.686Z,91.62
2023-02-23T21:07:30.510Z,91.85
2023-02-23T21:10:00.403Z,92.10
2023-02-23T21:12:31.975Z,92.37
2023-02-23T21:15:01.874Z,92.20
2023-02-23T21:17:28.444Z,92.29
2023-02-23T21:20:09.814Z,92.67
2023-02-23T21:22:51.238Z,92.53
2023-02-23T21:25:32.778Z,91.35
2023-02-23T21:28:04.438Z,92.06
2023-02-23T21:30:30.972Z,91.74
2023-02-23T21:33:01.071Z,91.12
2023-02-23T21:35:27.749Z,91.30
2023-02-23T21:37:57.347Z,90.76
2023-02-23T21:40:33.990Z,90.94
2023-02-23T21:43:11.342Z,90.81
2023-02-23T21:45:49.236Z,90.59
2023-02-23T21:48:21.011Z,90.25
2023-02-23T21:51:05.244Z,91.05
2023-02-23T21:53:38.240Z,90.36
2023-02-23T21:56:14.498Z,90.91
2023-02-23T21:59:05.016Z,90.20
2023-02-23T22:01:43.028Z,90.24
2023-02-23T22:04:18.897Z,89.78
2023-02-23T22:07:02.464Z,90.18
2023-02-23T22:09:29.157Z,89.90
2023-02-23T22:11:58.325Z,90.02
2023-02-23T22:14:27.090Z,90.31
2023-02-23T22:16:57.721Z,90.24
2023-02-23T22:19:32.900Z,90.40
2023-02-23T22:22:23.260Z,90.41
2023-02-23T22:24:56.197Z,90.94
2023-02-23T22:27:25.055Z,91.11
2023-02-23T22:29:51.799Z,91.31
2023-02-23T22:32:21.495Z,91.81
2023-02-23T22:34:48.232Z,91.95
2023-02-23T22:37:17.456Z,92.03
2023-02-23T22:40:17.125Z,92.40
2023-02-23T22:42:49.969Z,92.80
2023-02-23T22:45:23.793Z,92.56
2023-02-23T22:47:53.146Z,92.83
2023-02-23T22:50:21.920Z,92.83
2023-02-23T22:52:59.093Z,93.26
2023-02-23T22:55:35.727Z,93.42
2023-02-23T22:58:23.424Z,93.27
2023-02-23T23:01:10.297Z,93.63
2023-02-23T23:03:47.375Z,94.01
2023-02-23T23:06:35.968Z,94.19
2023-02-23T23:09:07.554Z,94.10
2023-02-23T23:11:45.000Z,93.86
2023-02-23T23:14:23.811Z,94.03
2023-02-23T23:16:53.180Z,94.39
2023-02-23T23:19:24.193Z,94.14
2023-02-23T23:22:04.403Z,94.16
2023-02-23T23:24:37.021Z,94.42
2023-02-23T23:27:27.377Z,94.66
2023-02-23T23:30:08.386Z,95.22
2023-02-23T23:32:46.884Z,95.05
2023-02-23T23:35:17.427Z,95.43
2023-02-23T23:37:46.713Z,95.17
2023-02-23T23:40:16.917Z,95.89
2023-02-23T23:42:51.832Z,95.27
2023-02-23T23:45:26.546Z,95.93
2023-02-23T23:47:55.907Z,95.88
2023-02-23T23:50:33.745Z,95.48
2023-02-23T23:53:22.011Z,95.71
2023-02-23T23:56:15.645Z,96.04
2023-02-23T23:58:54.449Z,96.21
